Terminal Aerodrome Forecast
Issued by NWS Corpus Christi, TX

Home | Current Version | Previous Version | Text Only | Print | Product List | Glossary On
Versions: 1 2 3 4 5 6 7 8 9 10 11 12 13 14 15 16 17 18 19 20
000
FTUS44 KCRP 012300
TAFCRP
TAF
KCRP 012336Z 0200/0224 VRB05KT P6SM SCT030 OVC150
     FM020100 34008KT P6SM SCT040 OVC150
     FM020430 01022G32KT P6SM SCT035 BKN100
     FM021500 02015KT P6SM SCT050 BKN250=

USA.gov is the U.S. government's official web portal to all federal, state and local government web resources and services.